createdAt,value
2022-10-01T00:00:18.760Z,78
2022-10-01T00:00:55.458Z,78
2022-10-01T00:01:26.497Z,78
2022-10-01T00:01:57.581Z,78
2022-10-01T00:02:28.244Z,78
2022-10-01T00:03:07.064Z,77
2022-10-01T00:03:34.156Z,77
2022-10-01T00:03:56.398Z,77
2022-10-01T00:04:19.243Z,77
2022-10-01T00:04:53.404Z,77
2022-10-01T00:05:26.084Z,77
2022-10-01T00:06:01.258Z,77
2022-10-01T00:06:28.194Z,77
2022-10-01T00:07:01.764Z,77
2022-10-01T00:07:33.897Z,77
2022-10-01T00:07:56.524Z,77
2022-10-01T00:08:20.165Z,77
2022-10-01T00:08:54.301Z,77
2022-10-01T00:09:26.389Z,77
2022-10-01T00:09:57.532Z,77
2022-10-01T00:10:28.146Z,77
2022-10-01T00:11:02.176Z,77
2022-10-01T00:11:33.743Z,77
2022-10-01T00:11:56.271Z,76
2022-10-01T00:12:18.528Z,76
2022-10-01T00:12:53.643Z,77
2022-10-01T00:13:29.793Z,77
2022-10-01T00:13:52.311Z,77
2022-10-01T00:14:28.329Z,77
2022-10-01T00:15:05.760Z,77
2022-10-01T00:15:33.913Z,77
2022-10-01T00:15:56.245Z,77
2022-10-01T00:16:18.652Z,77
2022-10-01T00:16:53.463Z,77
2022-10-01T00:17:25.453Z,77
2022-10-01T00:17:57.475Z,77
2022-10-01T00:18:28.135Z,77
2022-10-01T00:19:01.570Z,77
2022-10-01T00:19:33.567Z,77
2022-10-01T00:19:56.843Z,77
2022-10-01T00:20:19.144Z,77
2022-10-01T00:20:53.326Z,77
2022-10-01T00:21:25.619Z,77
2022-10-01T00:21:57.307Z,77
2022-10-01T00:22:28.530Z,77
2022-10-01T00:23:01.442Z,77
2022-10-01T00:23:33.439Z,77
2022-10-01T00:23:56.162Z,77
2022-10-01T00:24:18.816Z,76
2022-10-01T00:24:53.380Z,76
2022-10-01T00:25:25.440Z,76
2022-10-01T00:25:57.485Z,76
2022-10-01T00:26:28.355Z,76
2022-10-01T00:27:01.389Z,76
2022-10-01T00:27:33.429Z,76
2022-10-01T00:27:56.638Z,76
2022-10-01T00:28:18.975Z,76
2022-10-01T00:28:53.693Z,76
2022-10-01T00:29:26.918Z,76
2022-10-01T00:29:57.943Z,76
2022-10-01T00:30:28.093Z,76
2022-10-01T00:31:01.369Z,76
2022-10-01T00:31:33.864Z,77
2022-10-01T00:31:56.318Z,77
2022-10-01T00:32:18.572Z,77
2022-10-01T00:32:53.537Z,77
2022-10-01T00:33:25.299Z,77
2022-10-01T00:33:57.308Z,77
2022-10-01T00:34:28.037Z,77
2022-10-01T00:35:03.896Z,77
2022-10-01T00:35:33.306Z,77
2022-10-01T00:35:56.098Z,77
2022-10-01T00:36:18.495Z,77
2022-10-01T00:36:53.518Z,77
2022-10-01T00:37:25.507Z,77
2022-10-01T00:37:57.451Z,77
2022-10-01T00:38:28.019Z,77
2022-10-01T00:39:01.452Z,77
2022-10-01T00:39:33.428Z,76
2022-10-01T00:39:56.295Z,76
2022-10-01T00:40:18.731Z,76
2022-10-01T00:40:53.474Z,76
2022-10-01T00:41:25.336Z,76
2022-10-01T00:41:57.354Z,77
2022-10-01T00:42:27.996Z,77
2022-10-01T00:43:01.403Z,77
2022-10-01T00:43:33.283Z,77
2022-10-01T00:43:56.607Z,77
2022-10-01T00:44:18.903Z,77
2022-10-01T00:44:53.289Z,77
2022-10-01T00:45:25.484Z,77
2022-10-01T00:45:57.453Z,77
2022-10-01T00:46:28.143Z,77
2022-10-01T00:47:01.384Z,77
2022-10-01T00:47:33.310Z,77
2022-10-01T00:47:56.077Z,77
2022-10-01T00:48:18.368Z,77
2022-10-01T00:48:53.504Z,77
2022-10-01T00:49:25.678Z,77
2022-10-01T00:49:59.433Z,77
2022-10-01T00:50:28.197Z,77
2022-10-01T00:51:01.315Z,77
2022-10-01T00:51:33.606Z,77
2022-10-01T00:51:57.180Z,77
2022-10-01T00:52:19.494Z,77
2022-10-01T00:52:53.372Z,77
2022-10-01T00:53:25.472Z,77
2022-10-01T00:53:57.364Z,77
2022-10-01T00:54:28.076Z,77
2022-10-01T00:55:01.352Z,77
2022-10-01T00:55:33.413Z,77
2022-10-01T00:55:56.079Z,77
2022-10-01T00:56:18.442Z,77
2022-10-01T00:56:53.353Z,77
2022-10-01T00:57:25.362Z,77
2022-10-01T00:57:57.410Z,76
2022-10-01T00:58:28.104Z,77
2022-10-01T00:59:01.349Z,77
2022-10-01T00:59:33.375Z,77
2022-10-01T00:59:56.245Z,77
2022-10-01T01:00:19.051Z,77
2022-10-01T01:00:54.974Z,77
2022-10-01T01:01:25.405Z,77
2022-10-01T01:01:57.555Z,76
2022-10-01T01:02:28.224Z,76
2022-10-01T01:03:06.845Z,76
2022-10-01T01:03:33.308Z,76
2022-10-01T01:03:56.055Z,76
2022-10-01T01:04:18.360Z,76
2022-10-01T01:04:53.439Z,76
2022-10-01T01:05:25.758Z,76
2022-10-01T01:05:57.475Z,77
2022-10-01T01:06:28.157Z,77
2022-10-01T01:07:01.365Z,77
2022-10-01T01:07:33.285Z,77
2022-10-01T01:07:56.704Z,77
2022-10-01T01:08:18.936Z,77
2022-10-01T01:08:53.498Z,77
2022-10-01T01:09:25.427Z,77
2022-10-01T01:09:57.405Z,77
2022-10-01T01:10:28.046Z,77
2022-10-01T01:11:01.356Z,77
2022-10-01T01:11:36.216Z,77
2022-10-01T01:11:56.286Z,77
2022-10-01T01:12:18.556Z,77
2022-10-01T01:12:53.508Z,76
2022-10-01T01:13:25.268Z,76
2022-10-01T01:13:57.218Z,76
2022-10-01T01:14:28.286Z,76
2022-10-01T01:15:01.812Z,76
2022-10-01T01:15:33.491Z,77
2022-10-01T01:15:56.349Z,77
2022-10-01T01:16:18.626Z,77
2022-10-01T01:16:53.368Z,77
2022-10-01T01:17:25.338Z,77
2022-10-01T01:17:57.508Z,76
2022-10-01T01:18:28.171Z,76
2022-10-01T01:19:01.398Z,76
2022-10-01T01:19:33.260Z,76
2022-10-01T01:19:56.145Z,76
2022-10-01T01:20:18.408Z,76
2022-10-01T01:20:53.362Z,76
2022-10-01T01:21:25.500Z,76
2022-10-01T01:21:57.291Z,76
2022-10-01T01:22:28.100Z,76
2022-10-01T01:23:01.877Z,76
2022-10-01T01:23:33.381Z,76
2022-10-01T01:23:59.786Z,76
2022-10-01T01:24:21.087Z,76
2022-10-01T01:24:53.235Z,76
2022-10-01T01:25:25.459Z,76
2022-10-01T01:25:58.722Z,76
2022-10-01T01:26:28.214Z,76
2022-10-01T01:27:01.315Z,76
2022-10-01T01:27:33.351Z,76
2022-10-01T01:27:56.137Z,76
2022-10-01T01:28:18.549Z,76
2022-10-01T01:28:53.380Z,76
2022-10-01T01:29:25.301Z,76
2022-10-01T01:29:57.339Z,76
2022-10-01T01:30:28.249Z,76
2022-10-01T01:31:01.796Z,76
2022-10-01T01:31:33.797Z,76
2022-10-01T01:31:58.231Z,75
2022-10-01T01:32:19.119Z,75
2022-10-01T01:32:53.417Z,75
2022-10-01T01:33:25.726Z,75
2022-10-01T01:33:57.370Z,75
2022-10-01T01:34:28.051Z,75
2022-10-01T01:35:01.272Z,75
2022-10-01T01:35:33.822Z,75
2022-10-01T01:35:57.333Z,75
2022-10-01T01:36:19.650Z,75
2022-10-01T01:36:53.416Z,75
2022-10-01T01:37:26.110Z,75
2022-10-01T01:37:57.217Z,75
2022-10-01T01:38:28.261Z,75
2022-10-01T01:39:04.229Z,75
2022-10-01T01:39:33.822Z,75
2022-10-01T01:39:56.302Z,75
2022-10-01T01:40:18.724Z,75
2022-10-01T01:40:53.300Z,75
2022-10-01T01:41:25.460Z,75
2022-10-01T01:41:57.351Z,75
2022-10-01T01:42:28.132Z,75
2022-10-01T01:43:01.241Z,75
2022-10-01T01:43:33.486Z,75
2022-10-01T01:43:56.120Z,75
2022-10-01T01:44:18.529Z,75
2022-10-01T01:44:53.356Z,75
2022-10-01T01:45:25.545Z,75
2022-10-01T01:45:57.262Z,75
2022-10-01T01:46:28.083Z,75
2022-10-01T01:47:01.373Z,75
2022-10-01T01:47:33.256Z,75
2022-10-01T01:47:56.649Z,76
2022-10-01T01:48:18.831Z,76
2022-10-01T01:48:53.294Z,75
2022-10-01T01:49:25.866Z,75
2022-10-01T01:49:57.517Z,75
2022-10-01T01:50:29.323Z,75
2022-10-01T01:51:01.440Z,75
2022-10-01T01:51:33.549Z,75
2022-10-01T01:51:56.238Z,75
2022-10-01T01:52:18.690Z,75
2022-10-01T01:52:53.450Z,75
2022-10-01T01:53:25.427Z,75
2022-10-01T01:53:57.371Z,75
2022-10-01T01:54:28.199Z,75
2022-10-01T01:55:01.597Z,74
2022-10-01T01:55:33.560Z,74
2022-10-01T01:55:56.633Z,74
2022-10-01T01:56:20.563Z,74
2022-10-01T01:56:53.436Z,74
2022-10-01T01:57:25.382Z,74
2022-10-01T01:57:57.681Z,74
2022-10-01T01:58:28.138Z,74
2022-10-01T01:59:01.320Z,74
2022-10-01T01:59:33.299Z,75
2022-10-01T01:59:56.432Z,75
2022-10-01T02:00:19.028Z,74
2022-10-01T02:00:53.765Z,75
2022-10-01T02:01:25.484Z,75
2022-10-01T02:01:57.499Z,74
2022-10-01T02:02:28.331Z,74
2022-10-01T02:03:06.900Z,75
2022-10-01T02:03:33.393Z,75
2022-10-01T02:03:56.183Z,75
2022-10-01T02:04:18.487Z,75
2022-10-01T02:04:53.311Z,75
2022-10-01T02:05:25.230Z,75
2022-10-01T02:05:57.578Z,75
2022-10-01T02:06:28.133Z,75
2022-10-01T02:07:01.266Z,75
2022-10-01T02:07:34.673Z,75
2022-10-01T02:07:56.016Z,75
2022-10-01T02:08:18.394Z,75
2022-10-01T02:08:53.543Z,75
2022-10-01T02:09:25.239Z,75
2022-10-01T02:09:57.308Z,76
2022-10-01T02:10:28.021Z,76
2022-10-01T02:11:01.213Z,76
2022-10-01T02:11:33.625Z,77
2022-10-01T02:11:55.991Z,77
2022-10-01T02:12:18.379Z,77
2022-10-01T02:12:53.399Z,77
2022-10-01T02:13:25.554Z,78
2022-10-01T02:13:57.689Z,78
2022-10-01T02:14:28.088Z,78
2022-10-01T02:15:01.999Z,79
2022-10-01T02:15:38.939Z,79
2022-10-01T02:15:56.457Z,79
2022-10-01T02:16:19.159Z,80
2022-10-01T02:16:53.284Z,80
2022-10-01T02:17:25.428Z,80
2022-10-01T02:17:58.308Z,81
2022-10-01T02:18:28.172Z,81
2022-10-01T02:19:01.372Z,81
2022-10-01T02:19:33.413Z,81
2022-10-01T02:19:58.638Z,81
2022-10-01T02:20:18.714Z,81
2022-10-01T02:20:53.720Z,81
2022-10-01T02:21:25.180Z,82
2022-10-01T02:21:57.597Z,82
2022-10-01T02:22:28.287Z,82
2022-10-01T02:23:01.284Z,82
2022-10-01T02:23:33.346Z,82
2022-10-01T02:23:56.167Z,82
2022-10-01T02:24:18.711Z,82
2022-10-01T02:24:53.268Z,82
2022-10-01T02:25:25.831Z,83
2022-10-01T02:25:57.726Z,83
2022-10-01T02:26:30.705Z,83
2022-10-01T02:27:01.381Z,83
2022-10-01T02:27:33.258Z,83
2022-10-01T02:27:56.366Z,84
2022-10-01T02:28:18.757Z,84
2022-10-01T02:28:53.392Z,84
2022-10-01T02:29:21.160Z,84
2022-10-01T02:29:57.502Z,84
2022-10-01T02:30:28.299Z,84
2022-10-01T02:31:03.277Z,84
2022-10-01T02:31:35.750Z,85
2022-10-01T02:31:58.131Z,85
2022-10-01T02:32:20.954Z,85
2022-10-01T02:32:53.739Z,85
2022-10-01T02:33:25.264Z,85
2022-10-01T02:33:57.913Z,85
2022-10-01T02:34:28.250Z,85
2022-10-01T02:35:01.409Z,85
2022-10-01T02:35:33.578Z,85
2022-10-01T02:35:55.921Z,86
2022-10-01T02:36:18.636Z,86
2022-10-01T02:36:54.781Z,86
2022-10-01T02:37:25.600Z,86
2022-10-01T02:37:57.357Z,86
2022-10-01T02:38:28.654Z,86
2022-10-01T02:39:05.164Z,86
2022-10-01T02:39:34.165Z,86
2022-10-01T02:39:56.793Z,86
2022-10-01T02:40:19.284Z,85
2022-10-01T02:40:53.800Z,85
2022-10-01T02:41:25.373Z,85
2022-10-01T02:41:57.465Z,85
2022-10-01T02:42:28.052Z,85
2022-10-01T02:43:01.476Z,85
2022-10-01T02:43:33.293Z,86
2022-10-01T02:43:56.559Z,86
2022-10-01T02:44:18.568Z,86
2022-10-01T02:44:53.340Z,86
2022-10-01T02:45:26.006Z,86
2022-10-01T02:45:57.555Z,86
2022-10-01T02:46:28.497Z,86
2022-10-01T02:47:02.779Z,86
2022-10-01T02:47:34.220Z,86
2022-10-01T02:47:56.719Z,86
2022-10-01T02:48:20.817Z,86
2022-10-01T02:48:57.905Z,86
2022-10-01T02:49:20.389Z,86
2022-10-01T02:49:57.462Z,86
2022-10-01T02:50:28.064Z,86
2022-10-01T02:51:01.345Z,86
2022-10-01T02:51:33.483Z,86
2022-10-01T02:51:58.668Z,87
2022-10-01T02:52:20.094Z,87
2022-10-01T02:52:53.258Z,87
2022-10-01T02:53:25.274Z,87
2022-10-01T02:53:57.445Z,87
2022-10-01T02:54:28.980Z,87
2022-10-01T02:55:01.391Z,87
2022-10-01T02:55:33.283Z,87
2022-10-01T02:55:58.159Z,87
2022-10-01T02:56:19.022Z,87
2022-10-01T02:56:56.257Z,87
2022-10-01T02:57:25.271Z,87
2022-10-01T02:57:57.370Z,87
2022-10-01T02:58:28.280Z,87
2022-10-01T02:59:01.184Z,87
2022-10-01T02:59:33.346Z,87
2022-10-01T02:59:55.883Z,87
2022-10-01T03:00:18.361Z,87
2022-10-01T03:00:53.267Z,87
2022-10-01T03:01:25.344Z,88
2022-10-01T03:01:57.320Z,88
2022-10-01T03:02:28.642Z,88
2022-10-01T03:03:06.703Z,88
2022-10-01T03:03:33.340Z,88
2022-10-01T03:03:56.078Z,88
2022-10-01T03:04:18.483Z,88
2022-10-01T03:04:53.297Z,88
2022-10-01T03:05:25.147Z,88
2022-10-01T03:05:57.554Z,88
2022-10-01T03:06:28.096Z,88
2022-10-01T03:07:02.732Z,88
2022-10-01T03:07:33.316Z,88
2022-10-01T03:07:56.126Z,88
2022-10-01T03:08:18.678Z,88
2022-10-01T03:08:53.322Z,88
2022-10-01T03:09:25.312Z,88
2022-10-01T03:09:57.588Z,88
2022-10-01T03:10:28.062Z,88
2022-10-01T03:11:01.750Z,89
2022-10-01T03:11:33.539Z,89
2022-10-01T03:11:56.026Z,89
2022-10-01T03:12:19.068Z,89
2022-10-01T03:12:53.377Z,89
2022-10-01T03:13:25.208Z,89
2022-10-01T03:13:57.173Z,89
2022-10-01T03:14:28.089Z,89
2022-10-01T03:15:02.249Z,89
2022-10-01T03:15:33.204Z,89
2022-10-01T03:15:55.985Z,89
2022-10-01T03:16:18.323Z,89
2022-10-01T03:16:53.235Z,89
2022-10-01T03:17:25.391Z,89
2022-10-01T03:17:57.195Z,90
2022-10-01T03:18:28.211Z,90
2022-10-01T03:19:01.242Z,90
2022-10-01T03:19:33.774Z,90
2022-10-01T03:19:58.693Z,90
2022-10-01T03:20:18.522Z,90
2022-10-01T03:20:53.360Z,90
2022-10-01T03:21:25.767Z,90
2022-10-01T03:21:57.206Z,90
2022-10-01T03:22:28.125Z,90
2022-10-01T03:23:01.178Z,91
2022-10-01T03:23:34.766Z,91
2022-10-01T03:23:56.064Z,91
2022-10-01T03:24:18.957Z,91
2022-10-01T03:24:53.489Z,91
2022-10-01T03:25:25.210Z,91
2022-10-01T03:25:58.752Z,91
2022-10-01T03:26:28.135Z,91
2022-10-01T03:27:01.140Z,91
2022-10-01T03:27:33.143Z,91
2022-10-01T03:27:56.350Z,91
2022-10-01T03:28:18.598Z,91
2022-10-01T03:28:53.412Z,91
2022-10-01T03:29:25.467Z,91
2022-10-01T03:29:57.289Z,91
2022-10-01T03:30:28.171Z,91
2022-10-01T03:31:01.291Z,91
2022-10-01T03:31:33.802Z,91
2022-10-01T03:31:56.067Z,91
2022-10-01T03:32:19.953Z,91
2022-10-01T03:32:53.148Z,92
2022-10-01T03:33:25.234Z,92
2022-10-01T03:33:57.207Z,92
2022-10-01T03:34:28.121Z,92
2022-10-01T03:35:01.217Z,92
2022-10-01T03:35:33.220Z,92
2022-10-01T03:35:57.064Z,92
2022-10-01T03:36:19.250Z,92
2022-10-01T03:36:53.253Z,92
2022-10-01T03:37:25.102Z,92
2022-10-01T03:37:57.387Z,92
2022-10-01T03:38:28.225Z,92
2022-10-01T03:39:01.232Z,92
2022-10-01T03:39:33.373Z,92
2022-10-01T03:39:56.177Z,92
2022-10-01T03:40:18.328Z,92
2022-10-01T03:40:53.361Z,92
2022-10-01T03:41:25.205Z,92
2022-10-01T03:41:57.265Z,92
2022-10-01T03:42:28.374Z,92
2022-10-01T03:43:01.185Z,92
2022-10-01T03:43:33.154Z,92
2022-10-01T03:44:00.290Z,92
2022-10-01T03:44:19.527Z,92
2022-10-01T03:44:53.243Z,92
2022-10-01T03:45:25.288Z,92
2022-10-01T03:45:57.398Z,92
2022-10-01T03:46:28.191Z,92
2022-10-01T03:47:01.318Z,92
2022-10-01T03:47:33.229Z,93
2022-10-01T03:47:56.278Z,93
2022-10-01T03:48:18.619Z,93
2022-10-01T03:48:53.265Z,93
2022-10-01T03:49:25.387Z,93
2022-10-01T03:49:57.208Z,93
2022-10-01T03:50:28.172Z,93
2022-10-01T03:51:01.295Z,93
2022-10-01T03:51:33.500Z,93
2022-10-01T03:51:55.956Z,93
2022-10-01T03:52:18.398Z,93
2022-10-01T03:52:53.243Z,93
2022-10-01T03:53:25.246Z,93
2022-10-01T03:53:57.129Z,93
2022-10-01T03:54:28.104Z,93
2022-10-01T03:55:01.442Z,93
2022-10-01T03:55:33.229Z,93
2022-10-01T03:55:55.921Z,93
2022-10-01T03:56:18.681Z,93
2022-10-01T03:56:53.134Z,93
2022-10-01T03:57:25.241Z,93
2022-10-01T03:57:57.502Z,93
2022-10-01T03:58:28.660Z,93
2022-10-01T03:59:01.238Z,93
2022-10-01T03:59:33.111Z,93
2022-10-01T03:59:55.898Z,93
2022-10-01T04:00:18.323Z,94
2022-10-01T04:00:53.326Z,94
2022-10-01T04:01:25.368Z,94
2022-10-01T04:01:57.430Z,95
2022-10-01T04:02:28.440Z,95
2022-10-01T04:03:06.930Z,95
2022-10-01T04:03:33.659Z,95
2022-10-01T04:03:56.308Z,95
2022-10-01T04:04:18.631Z,95
2022-10-01T04:04:53.091Z,95
2022-10-01T04:05:25.166Z,94
2022-10-01T04:05:57.623Z,94
2022-10-01T04:06:28.246Z,94
2022-10-01T04:07:01.262Z,94
2022-10-01T04:07:33.514Z,94
2022-10-01T04:07:56.521Z,94
2022-10-01T04:08:24.112Z,94
2022-10-01T04:08:53.326Z,94
2022-10-01T04:09:25.344Z,94
2022-10-01T04:09:57.220Z,94
2022-10-01T04:10:28.675Z,93
2022-10-01T04:11:01.220Z,93
2022-10-01T04:11:33.681Z,93
2022-10-01T04:11:56.317Z,93
2022-10-01T04:12:18.704Z,93
2022-10-01T04:12:53.109Z,93
2022-10-01T04:13:25.138Z,93
2022-10-01T04:13:57.265Z,93
2022-10-01T04:14:28.105Z,93
2022-10-01T04:15:01.962Z,93
2022-10-01T04:15:33.165Z,93
2022-10-01T04:15:56.379Z,93
2022-10-01T04:16:18.721Z,94
2022-10-01T04:16:53.140Z,94
2022-10-01T04:17:25.109Z,94
2022-10-01T04:17:57.666Z,94
2022-10-01T04:18:28.361Z,94
2022-10-01T04:19:03.712Z,94
2022-10-01T04:19:34.601Z,94
2022-10-01T04:19:57.293Z,94
2022-10-01T04:20:18.077Z,94
2022-10-01T04:20:53.429Z,94
2022-10-01T04:21:25.233Z,94
2022-10-01T04:21:57.231Z,94
2022-10-01T04:22:28.141Z,94
2022-10-01T04:23:01.311Z,94
2022-10-01T04:23:33.298Z,94
2022-10-01T04:23:56.312Z,94
2022-10-01T04:24:18.764Z,94
2022-10-01T04:24:53.433Z,94
2022-10-01T04:25:19.721Z,94
2022-10-01T04:25:57.894Z,94
2022-10-01T04:26:28.217Z,94
2022-10-01T04:27:01.374Z,94
2022-10-01T04:27:34.021Z,94
2022-10-01T04:27:56.940Z,94
2022-10-01T04:28:19.485Z,94
2022-10-01T04:28:56.035Z,94
2022-10-01T04:29:25.109Z,94
2022-10-01T04:29:59.879Z,93
2022-10-01T04:30:28.320Z,94
2022-10-01T04:31:02.237Z,94
2022-10-01T04:31:33.684Z,93
2022-10-01T04:31:56.135Z,93
2022-10-01T04:32:18.697Z,93
2022-10-01T04:32:53.609Z,93
2022-10-01T04:33:25.639Z,93
2022-10-01T04:33:57.272Z,93
2022-10-01T04:34:29.451Z,93
2022-10-01T04:35:01.423Z,93
2022-10-01T04:35:34.523Z,93
2022-10-01T04:35:57.122Z,93
2022-10-01T04:36:19.482Z,93
2022-10-01T04:36:53.892Z,93
2022-10-01T04:37:26.396Z,93
2022-10-01T04:37:57.549Z,93
2022-10-01T04:38:28.317Z,93
2022-10-01T04:39:02.783Z,93
2022-10-01T04:39:33.239Z,93
2022-10-01T04:39:56.145Z,93
2022-10-01T04:40:18.769Z,93
2022-10-01T04:40:53.209Z,93
2022-10-01T04:41:25.690Z,93
2022-10-01T04:41:57.385Z,93
2022-10-01T04:42:28.320Z,93
2022-10-01T04:43:01.387Z,93
2022-10-01T04:43:33.472Z,93
2022-10-01T04:43:56.259Z,93
2022-10-01T04:44:18.599Z,93
2022-10-01T04:44:53.611Z,93
2022-10-01T04:45:25.115Z,93
2022-10-01T04:45:57.334Z,93
2022-10-01T04:46:29.060Z,92
2022-10-01T04:47:01.920Z,92
2022-10-01T04:47:37.630Z,92
2022-10-01T04:47:56.179Z,92
2022-10-01T04:48:18.728Z,92
2022-10-01T04:48:53.281Z,92
2022-10-01T04:49:25.646Z,92
2022-10-01T04:49:57.448Z,92
2022-10-01T04:50:28.609Z,92
2022-10-01T04:51:01.716Z,92
2022-10-01T04:51:34.123Z,92
2022-10-01T04:51:56.556Z,92
2022-10-01T04:52:19.036Z,92
2022-10-01T04:52:53.301Z,92
2022-10-01T04:53:25.231Z,92
2022-10-01T04:53:57.645Z,92
2022-10-01T04:54:28.831Z,92
2022-10-01T04:55:01.345Z,92
2022-10-01T04:55:34.056Z,92
2022-10-01T04:55:56.567Z,92
2022-10-01T04:56:19.221Z,92
2022-10-01T04:56:53.180Z,92
2022-10-01T04:57:25.308Z,92
2022-10-01T04:57:57.339Z,92
2022-10-01T04:58:28.727Z,92
2022-10-01T04:59:01.224Z,92
2022-10-01T04:59:33.378Z,92
2022-10-01T04:59:56.071Z,92
2022-10-01T05:00:21.159Z,92
2022-10-01T05:00:53.358Z,92
2022-10-01T05:01:25.227Z,92
2022-10-01T05:01:57.371Z,92
2022-10-01T05:02:29.828Z,92
2022-10-01T05:03:04.149Z,92
2022-10-01T05:03:34.188Z,92
2022-10-01T05:03:59.182Z,92
2022-10-01T05:04:19.402Z,92
2022-10-01T05:04:53.241Z,92
2022-10-01T05:05:25.331Z,92
2022-10-01T05:05:58.713Z,92
2022-10-01T05:06:28.417Z,93
2022-10-01T05:07:01.208Z,93
2022-10-01T05:07:37.424Z,93
2022-10-01T05:07:56.617Z,93
2022-10-01T05:08:19.971Z,93
2022-10-01T05:08:53.495Z,93
2022-10-01T05:09:26.761Z,93
2022-10-01T05:09:57.578Z,93
2022-10-01T05:10:28.122Z,93
2022-10-01T05:11:01.465Z,93
2022-10-01T05:11:33.462Z,93
2022-10-01T05:11:55.959Z,93
2022-10-01T05:12:23.695Z,93
2022-10-01T05:12:53.581Z,93
2022-10-01T05:13:28.562Z,93
2022-10-01T05:13:51.137Z,93
2022-10-01T05:14:28.532Z,93
2022-10-01T05:15:02.141Z,93
2022-10-01T05:15:33.208Z,93
2022-10-01T05:15:56.270Z,93
2022-10-01T05:16:18.595Z,93
2022-10-01T05:16:53.274Z,93
2022-10-01T05:17:25.246Z,93
2022-10-01T05:17:57.440Z,93
2022-10-01T05:18:28.305Z,93
2022-10-01T05:19:01.168Z,93
2022-10-01T05:19:38.644Z,93
2022-10-01T05:19:58.246Z,93
2022-10-01T05:20:18.033Z,93
2022-10-01T05:20:53.112Z,93
2022-10-01T05:21:25.088Z,93
2022-10-01T05:21:57.165Z,93
2022-10-01T05:22:28.171Z,93
2022-10-01T05:23:01.121Z,93
2022-10-01T05:23:33.758Z,93
2022-10-01T05:23:56.266Z,93
2022-10-01T05:24:18.715Z,93
2022-10-01T05:24:53.699Z,93
2022-10-01T05:25:25.219Z,93
2022-10-01T05:25:57.201Z,93
2022-10-01T05:26:28.191Z,93
2022-10-01T05:27:01.205Z,93
2022-10-01T05:27:33.764Z,93
2022-10-01T05:27:56.478Z,93
2022-10-01T05:28:22.165Z,93
2022-10-01T05:28:55.673Z,93
2022-10-01T05:29:25.100Z,93
2022-10-01T05:29:57.121Z,93
2022-10-01T05:30:28.171Z,93
2022-10-01T05:31:01.192Z,93
2022-10-01T05:31:37.294Z,93
2022-10-01T05:31:56.564Z,93
2022-10-01T05:32:19.028Z,93
2022-10-01T05:32:53.774Z,93
2022-10-01T05:33:25.120Z,93
2022-10-01T05:33:57.218Z,93
2022-10-01T05:34:28.546Z,93
2022-10-01T05:35:01.143Z,93
2022-10-01T05:35:33.174Z,93
2022-10-01T05:35:56.184Z,93
2022-10-01T05:36:18.684Z,93
2022-10-01T05:36:55.693Z,93
2022-10-01T05:37:25.354Z,93
2022-10-01T05:37:57.206Z,93
2022-10-01T05:38:28.287Z,93
2022-10-01T05:39:01.296Z,93
2022-10-01T05:39:33.321Z,93
2022-10-01T05:39:56.367Z,93
2022-10-01T05:40:18.390Z,93
2022-10-01T05:40:53.333Z,93
2022-10-01T05:41:25.317Z,93
2022-10-01T05:41:57.255Z,93
2022-10-01T05:42:32.704Z,93
2022-10-01T05:43:06.562Z,93
2022-10-01T05:43:33.212Z,93
2022-10-01T05:44:02.678Z,93
2022-10-01T05:44:20.504Z,93
2022-10-01T05:44:53.085Z,93
2022-10-01T05:45:25.466Z,93
2022-10-01T05:45:57.176Z,93
2022-10-01T05:46:28.234Z,93
2022-10-01T05:47:01.268Z,93
2022-10-01T05:47:33.241Z,93
2022-10-01T05:47:56.057Z,93
2022-10-01T05:48:18.579Z,92
2022-10-01T05:48:53.212Z,92
2022-10-01T05:49:19.375Z,92
2022-10-01T05:49:58.010Z,92
2022-10-01T05:50:28.309Z,92
2022-10-01T05:51:01.256Z,92
2022-10-01T05:51:33.507Z,92
2022-10-01T05:51:55.917Z,92
2022-10-01T05:52:18.320Z,92
2022-10-01T05:52:53.680Z,92
2022-10-01T05:53:27.035Z,92
2022-10-01T05:53:57.474Z,92
2022-10-01T05:54:28.472Z,92
2022-10-01T05:55:01.494Z,92
2022-10-01T05:55:33.139Z,92
2022-10-01T05:55:55.798Z,92
2022-10-01T05:56:19.155Z,92
2022-10-01T05:56:53.573Z,92
2022-10-01T05:57:25.374Z,92
2022-10-01T05:57:57.933Z,92
2022-10-01T05:58:28.476Z,92
2022-10-01T05:59:01.364Z,92
2022-10-01T05:59:33.306Z,91
2022-10-01T05:59:56.138Z,91
2022-10-01T06:00:18.778Z,91
2022-10-01T06:00:54.023Z,91
2022-10-01T06:01:29.039Z,91
2022-10-01T06:01:51.756Z,91
2022-10-01T06:02:28.695Z,91
2022-10-01T06:03:06.941Z,91
2022-10-01T06:03:33.577Z,91
2022-10-01T06:03:56.510Z,91
2022-10-01T06:04:18.867Z,91
2022-10-01T06:04:53.372Z,91
2022-10-01T06:05:25.191Z,91
2022-10-01T06:05:57.226Z,91
2022-10-01T06:06:28.741Z,91
2022-10-01T06:07:01.168Z,91
2022-10-01T06:07:34.737Z,91
2022-10-01T06:07:56.298Z,91
2022-10-01T06:08:18.731Z,91
2022-10-01T06:08:53.713Z,91
2022-10-01T06:09:25.356Z,91
2022-10-01T06:09:57.204Z,91
2022-10-01T06:10:28.316Z,91
2022-10-01T06:11:01.177Z,91
2022-10-01T06:11:33.401Z,91
2022-10-01T06:11:55.786Z,91
2022-10-01T06:12:19.900Z,91
2022-10-01T06:12:53.825Z,91
2022-10-01T06:13:25.342Z,91
2022-10-01T06:13:57.879Z,91
2022-10-01T06:14:28.210Z,91
2022-10-01T06:15:02.021Z,91
2022-10-01T06:15:33.264Z,91
2022-10-01T06:15:56.571Z,91
2022-10-01T06:16:19.018Z,91
2022-10-01T06:16:53.243Z,91
2022-10-01T06:17:25.193Z,91
2022-10-01T06:17:57.467Z,91
2022-10-01T06:18:28.380Z,91
2022-10-01T06:19:01.160Z,91
2022-10-01T06:19:33.213Z,91
2022-10-01T06:19:59.874Z,91
2022-10-01T06:20:18.779Z,91
2022-10-01T06:20:58.770Z,92
2022-10-01T06:21:25.157Z,92
2022-10-01T06:21:57.163Z,92
2022-10-01T06:22:28.284Z,92
2022-10-01T06:23:01.407Z,92
2022-10-01T06:23:33.128Z,92
2022-10-01T06:23:56.639Z,92
2022-10-01T06:24:18.863Z,92
2022-10-01T06:24:56.621Z,92
2022-10-01T06:25:25.448Z,93
2022-10-01T06:25:57.333Z,93
2022-10-01T06:26:28.266Z,93
2022-10-01T06:27:01.227Z,93
2022-10-01T06:27:33.297Z,93
2022-10-01T06:28:01.862Z,93
2022-10-01T06:28:18.745Z,93
2022-10-01T06:28:54.732Z,93
2022-10-01T06:29:25.264Z,93
2022-10-01T06:29:57.283Z,93
2022-10-01T06:30:28.317Z,93
2022-10-01T06:31:01.464Z,93
2022-10-01T06:31:33.980Z,94
2022-10-01T06:31:56.598Z,94
2022-10-01T06:32:18.839Z,94
2022-10-01T06:32:53.607Z,94
2022-10-01T06:33:25.254Z,94
2022-10-01T06:33:57.145Z,94
2022-10-01T06:34:29.157Z,94
2022-10-01T06:35:01.426Z,94
2022-10-01T06:35:33.244Z,94
2022-10-01T06:35:56.028Z,94
2022-10-01T06:36:18.426Z,94
2022-10-01T06:36:53.787Z,94
2022-10-01T06:37:25.087Z,94
2022-10-01T06:37:57.782Z,94
2022-10-01T06:38:28.510Z,94
2022-10-01T06:39:01.163Z,94
2022-10-01T06:39:36.594Z,94
2022-10-01T06:39:57.394Z,95
2022-10-01T06:40:18.269Z,95
2022-10-01T06:40:53.182Z,95
2022-10-01T06:41:25.459Z,95
2022-10-01T06:41:57.173Z,95
2022-10-01T06:42:29.778Z,95
2022-10-01T06:43:01.149Z,95
2022-10-01T06:43:33.224Z,95
2022-10-01T06:43:55.901Z,95
2022-10-01T06:44:18.190Z,95
2022-10-01T06:44:53.188Z,95
2022-10-01T06:45:25.333Z,95
2022-10-01T06:45:57.368Z,95
2022-10-01T06:46:28.391Z,95
2022-10-01T06:47:01.009Z,95
2022-10-01T06:47:33.263Z,95
2022-10-01T06:47:55.948Z,95
2022-10-01T06:48:18.189Z,95
2022-10-01T06:48:53.096Z,95
2022-10-01T06:49:25.333Z,95
2022-10-01T06:49:57.084Z,95
2022-10-01T06:50:28.165Z,95
2022-10-01T06:51:01.066Z,95
2022-10-01T06:51:33.414Z,95
2022-10-01T06:51:56.064Z,95
2022-10-01T06:52:18.236Z,95
2022-10-01T06:52:53.205Z,95
2022-10-01T06:53:25.174Z,95
2022-10-01T06:53:57.120Z,95
2022-10-01T06:54:28.184Z,95
2022-10-01T06:55:01.146Z,95
2022-10-01T06:55:33.071Z,95
2022-10-01T06:55:56.802Z,96
2022-10-01T06:56:19.364Z,96
2022-10-01T06:56:53.323Z,96
2022-10-01T06:57:25.480Z,96
2022-10-01T06:57:57.403Z,96
2022-10-01T06:58:28.332Z,96
2022-10-01T06:59:01.083Z,96
2022-10-01T06:59:33.683Z,96
2022-10-01T06:59:56.401Z,96
2022-10-01T07:00:18.660Z,96
2022-10-01T07:00:53.121Z,96
2022-10-01T07:01:25.232Z,96
2022-10-01T07:01:57.238Z,96
2022-10-01T07:02:28.319Z,96
2022-10-01T07:03:01.301Z,96
2022-10-01T07:03:33.292Z,96
2022-10-01T07:03:56.327Z,96
2022-10-01T07:04:18.619Z,96
2022-10-01T07:04:53.323Z,96
2022-10-01T07:05:25.261Z,96
2022-10-01T07:05:57.149Z,96
2022-10-01T07:06:34.719Z,96
2022-10-01T07:07:01.275Z,96
2022-10-01T07:07:33.110Z,96
2022-10-01T07:07:55.956Z,96